Date,TemperatureHighF,TemperatureAvgF,TemperatureLowF,DewpointHighF,DewpointAvgF,DewpointLowF,HumidityHigh,HumidityAvg,HumidityLow,PressureMaxIn,PressureMinIn,WindSpeedMaxMPH,WindSpeedAvgMPH,GustSpeedMaxMPH,PrecipitationSumIn
2013-1-1,73.3,55.9,50.6,60.7,53.4,49.5,98,92,62,30.23,30.13,4,0,8,0.00
2013-1-2,79.2,61.6,54.1,67.8,58.9,53.0,98,91,65,30.06,29.97,4,0,7,0.00
2013-1-3,66.2,61.4,55.0,64.0,60.2,53.7,98,96,91,30.21,30.03,3,0,5,0.06
2013-1-4,57.4,54.3,50.8,56.2,53.2,50.0,98,96,92,30.31,30.18,3,1,5,0.02
2013-1-5,68.9,57.8,46.3,60.2,52.9,44.8,95,84,71,30.33,30.20,2,1,3,0.00
2013-1-6,78.5,64.8,56.8,68.9,60.9,54.9,95,88,68,30.23,30.06,2,0,4,0.01
2013-1-7,65.8,59.4,51.8,57.4,54.2,47.7,96,83,72,30.25,30.14,3,1,5,0.01
2013-1-8,79.6,67.6,57.9,69.9,64.0,55.8,99,89,70,30.24,30.14,3,1,5,0.00
2013-1-9,80.6,72.0,66.6,71.3,68.4,66.0,99,89,70,30.31,30.20,3,1,6,0.00
2013-1-10,82.3,71.6,65.4,70.3,66.6,63.1,99,86,53,30.32,30.22,3,1,7,0.00
2013-1-11,81.1,69.3,60.0,70.0,64.3,59.1,99,85,62,30.26,30.15,4,1,7,0.00
2013-1-12,82.1,68.7,57.6,69.0,62.8,56.8,99,83,53,30.19,30.09,3,1,8,0.00
2013-1-13,79.8,70.1,62.5,67.6,64.2,60.9,98,83,62,30.17,30.07,2,0,7,0.00
2013-1-14,81.3,69.1,59.7,67.5,63.0,58.8,99,83,56,30.19,30.11,3,0,6,0.00
2013-1-15,82.5,70.2,60.3,68.6,63.5,59.4,99,81,53,30.15,30.04,3,0,7,0.00
2013-1-16,82.2,69.0,60.3,67.0,62.0,58.5,98,80,50,30.11,30.00,3,0,6,0.00
2013-1-17,74.1,60.0,47.7,68.2,55.5,39.5,98,86,67,30.14,29.99,7,3,11,0.00
2013-1-18,63.4,50.8,38.0,53.0,43.9,33.6,85,77,68,30.32,30.15,6,2,9,0.00
2013-1-19,71.8,59.9,49.8,60.1,54.1,47.1,93,82,65,30.32,30.16,3,1,5,0.00
2013-1-20,72.4,63.0,57.1,61.1,57.1,52.4,95,82,66,30.20,30.06,2,0,4,0.00
2013-1-21,72.8,63.2,56.2,58.3,55.0,49.5,92,76,56,30.11,30.01,2,0,3,0.00
2013-1-22,60.4,54.4,44.3,49.2,40.6,35.1,83,61,39,30.29,30.08,3,1,5,0.00
2013-1-23,65.4,50.1,37.2,40.2,36.8,31.8,92,65,29,30.39,30.29,2,0,5,0.00
2013-1-24,72.9,55.2,39.2,55.2,46.8,37.3,95,76,48,30.33,30.22,3,0,5,0.00
2013-1-25,76.0,59.7,48.3,58.1,50.2,45.8,98,75,42,30.32,30.17,2,0,6,0.00
2013-1-26,75.8,59.3,46.8,59.6,53.3,44.7,98,82,54,30.28,30.16,2,0,4,0.00
2013-1-27,78.6,62.8,50.9,62.4,57.1,50.1,98,84,52,30.33,30.23,3,0,8,0.00
2013-1-28,79.0,67.7,58.7,65.1,61.9,57.6,98,83,60,30.34,30.23,4,1,10,0.00
2013-1-29,82.2,70.4,60.2,69.2,64.7,59.3,99,84,58,30.26,30.09,3,1,7,0.00
2013-1-30,84.6,73.9,65.2,67.0,65.2,63.6,95,76,53,30.10,29.86,5,2,13,0.00
2013-1-31,70.9,54.6,42.6,65.8,41.0,26.1,96,65,25,30.25,29.87,5,1,7,0.05